NWS Home NWS Lubbock West Texas Mesonet Central Sector Latest Conditions as of 1255 AM, Thu May 13, 2021

Latest   N   C   S   Daily Sum   3hrΔ   24hrΔ   Soil Data 
Site Map   24hr Precip   72hr Precip   Google Plot


Station Time of Last Temp Dew Pt. RH Wind Direction Wind Speed Wind Gust Max Wind Max Temp Min Temp Max RH Min RH Altimeter 1HR Rain Today's Rain Solar Rad
Abernathy 5ENE  12:50 AM 50 43 79% SE810 13 mph 125° @ 1221 AM 52 50 79 71 30.36" 0 0.00 0
Aiken 3WSW  12:50 AM 48 42 80% SE89 12 mph 119° @ 1208 AM 51 48 80 71 30.37" 0 0.00 0
Amherst 1NE  12:50 AM 51 40 66% SE1114 16 mph 113° @ 1244 AM 52 50 66 60 30.35" 0 0.00 0
Anton 6SSW  12:50 AM 53 44 73% SE1619 20 mph 112° @ 1235 AM 53 53 73 61 30.34" 0 0.00 0
Aspermont 3NE  12:50 AM 49 48 98% SE12 7 mph 130° @ 1207 AM 52 49 98 96 30.33" 0 0.00 0
Bootleg 11WNW  12:50 AM 43 41 92% SE910 11 mph 130° @ 1215 AM 45 43 93 87 30.38" 0 0.00 0
Brownfield 2S  12:50 AM 53 47 78% SE1520 23 mph 129° @ 1240 AM 55 53 78 71 30.34" 0 0.00 0
Caprock Canyons State Park  12:50 AM 49 42 76% SW44 7 mph 180° @ 1224 AM 51 49 76 71 30.37" 0 0.00 0
Childress 2NNE  12:50 AM 52 45 79% E89 10 mph 104° @ 1230 AM 52 52 79 76 30.34" 0 0.00 0
Clarendon 2WSW  12:50 AM 48 41 80% SE55 7 mph 112° @ 1215 AM 50 48 80 75 30.36" 0 0.00 0
Claude 12SW  12:50 AM 48 41 76% E1012 13 mph 111° @ 1245 AM 48 45 82 75 30.36" 0 0.00 0
Comanche Springs  12:50 AM 45 45 97% NW02 3 mph 333° @ 1247 AM 48 45 97 94 30.34" 0 0.00 0
Crowell 1E  12:50 AM 53 51 93% NE22 2 mph 62° @ 1205 AM 54 53 93 89 30.35" 0 0.00 0
Denver City 7WNW  12:50 AM 54 46 77% SE1317 18 mph 116° @ 1230 AM 55 54 77 75 30.32" 0 0.00 0
Dimmitt 2NE  12:50 AM 48 40 75% SE1013 15 mph 110° @ 1230 AM 49 48 75 72 30.36" 0 0.00 0
Dora NM 2SW  12:50 AM 53 43 70% SE1418 20 mph 137° @ 1230 AM 54 53 70 68 30.33" 0 0.00 0
Earth 9WSW  12:50 AM 47 39 73% SE78 9 mph 123° @ 1203 AM 50 47 73 66 30.36" 0 0.00 0
Estelline 3SSE  12:50 AM 51 43 76% E11 7 mph 123° @ 1204 AM 54 51 76 68 30.35" 0 0.00 0
Floydada 2NNE  12:50 AM 47 42 86% SE78 14 mph 109° @ 1210 AM 49 47 86 81 30.36" 0 0.00 0
Fluvanna 3WNW  12:50 AM 49 45 87% E68 11 mph 115° @ 1225 AM 51 49 87 83 30.33" 0 0.00 0
Friona 2NE  12:50 AM 46 39 78% SE79 11 mph 118° @ 1225 AM 47 46 78 76 30.37" 0 0.00 0
Gail 2ESE  12:50 AM 52 47 84% SE45 8 mph 122° @ 1228 AM 54 52 84 78 30.34" 0 0.00 0
Goodlett 3W  12:50 AM 52 47 84% E66 7 mph 105° @ 1210 AM 52 52 84 82 30.34" 0 0.00 0
Graham 5SSW  12:50 AM 53 47 81% E44 14 mph 108° @ 1204 AM 54 53 81 76 30.35" 0 0.00 0
Guthrie 10WSW  12:50 AM 53 50 90% SE57 8 mph 110° @ 1206 AM 54 53 90 85 30.34" 0 0.00 0
Hackberry 2SSE  12:50 AM 54 50 89% SE56 8 mph 120° @ 1210 AM 54 53 89 86 30.35" 0 0.00 0
Happy 1E  12:50 AM 46 40 80% SE910 13 mph 121° @ 1243 AM 47 46 80 76 30.37" 0 0.00 0
Hart 3N  12:50 AM 48 40 76% E1112 14 mph 104° @ 1220 AM 49 48 76 70 30.36" 0 0.00 0
Haskell 1NW  12:50 AM 54 52 93% E23 4 mph 115° @ 1215 AM 56 54 93 91 30.33" 0 0.00 0
Hefner 1SW  12:50 AM 56 54 92% SE11 4 mph 106° @ 1203 AM 57 56 93 91 30.34" 0 0.00 0
Hereford 2NW  12:50 AM 49 40 73% E59 9 mph 103° @ 1215 AM 49 49 73 72 30.35" 0 0.00 0
Hobbs NM 5NW  12:50 AM 54 44 69% SE1114 18 mph 112° @ 1220 AM 56 54 69 66 30.34" 0 0.00 0
Jayton 1SSE  12:50 AM 51 49 95% SE67 7 mph 103° @ 1205 AM 52 51 95 93 30.34" 0 0.00 0
Knox City 3NW  12:50 AM 53 52 96% N00 4 mph 111° @ 1207 AM 53 53 96 95 30.33" 0 0.00 0
Lake Alan Henry 1NW  12:50 AM 52 49 88% E34 7 mph 111° @ 1205 AM 53 52 88 85 30.34" 0 0.00 0
Lamesa 2SE  12:50 AM 53 47 81% E811 14 mph 114° @ 1225 AM 55 53 81 75 30.34" 0 0.00 0
Lesley 2S  12:10 AM 51 42 69% E88 8 mph 76° @ 1210 AM 52 51 69 68 30.34" 0 0.00 0
Levelland 4S  12:50 AM 53 44 71% E1519 21 mph 105° @ 1243 AM 55 53 71 62 30.33" 0 0.00 0
Lubbock 3WNW TTU  12:50 AM 53 45 76% SE1118 19 mph 121° @ 1230 AM 54 53 76 72 30.35" 0 0.00 0
Lubbock 4SE  12:50 AM 52 45 78% SE1012 18 mph 119° @ 1208 AM 53 52 78 74 30.36" 0 0.00 0
McAdoo 3NNW  12:50 AM 50 46 87% SE79 16 mph 114° @ 1225 AM 52 50 87 77 30.36" 0 0.00 0
Memphis 1NE  12:50 AM 51 42 71% NE34 4 mph 65° @ 1250 AM 52 51 71 68 30.36" 0 0.00 0
Morton 1ENE  12:50 AM 52 42 69% SE1012 13 mph 116° @ 1235 AM 53 52 69 64 30.33" 0 0.00 0
Muleshoe 2SSW  12:50 AM 47 39 75% E67 11 mph 120° @ 1210 AM 50 47 75 68 30.35" 0 0.00 0
New Home  12:50 AM 52 47 83% E911 14 mph 112° @ 1240 AM 53 52 83 76 30.36" 0 0.00 0
Northfield 1S  12:50 AM 51 45 82% SE67 8 mph 125° @ 1230 AM 52 51 82 76 30.35" 0 0.00 0
O'Donnell 1N  12:50 AM 53 47 82% SE79 16 mph 119° @ 1204 AM 54 53 82 77 30.35" 0 0.00 0
Odell 4ENE  12:50 AM 50 48 92% N34 5 mph 329° @ 1236 AM 52 50 92 87 30.35" 0 0.00 0
Olton 6S  12:50 AM 48 41 77% SE811 13 mph 121° @ 1235 AM 50 48 77 68 30.34" 0 0.00 0
Paducah 10SW  12:50 AM 51 48 88% SE57 7 mph 151° @ 1250 AM 52 51 88 85 30.36" 0 0.00 0
Palo Duro 4E (JA Ranch)  12:50 AM 45 40 82% SE00 6 mph 106° @ 1201 AM 50 45 83 71 30.37" 0 0.00 0
Palo Duro Canyon SP Floor  12:50 AM 53 41 65% SE68 11 mph 132° @ 1212 AM 54 52 65 62 30.36" 0 0.00 0
Palo Duro Canyon State Park Rim  12:50 AM 51 40 66% SE912 15 mph 136° @ 1229 AM 51 51 66 62 30.38" 0 0.00 0
Plains 3N  12:50 AM 54 45 74% SE1316 18 mph 116° @ 1240 AM 55 54 75 73 30.33" 0 0.00 0
Plainview 1S  12:50 AM 49 42 75% SE57 14 mph 121° @ 1219 AM 51 49 75 68 30.36" 0 0.00 0
Post 1NE  12:50 AM 52 48 87% E45 9 mph 95° @ 1233 AM 53 52 87 82 30.35" 0 0.00 0
Ralls 1SE  12:50 AM 50 44 80% SE57 12 mph 108° @ 1204 AM 52 50 80 76 30.36" 0 0.00 0
Reese Center  12:50 AM 53 45 73% SE1519 25 mph 112° @ 1223 AM 55 53 73 65 30.35" 0 0.00 0
Roaring Springs 3N  12:50 AM 51 46 85% SE57 10 mph 140° @ 1228 AM 52 51 85 78 30.35" 0 0.00 0
Rotan 5W  12:50 AM 52 49 91% E44 8 mph 95° @ 1203 AM 53 52 91 88 30.34" 0 0.00 0
Seagraves 1SW  12:50 AM 53 47 80% SE69 15 mph 112° @ 1207 AM 55 53 80 73 30.33" 0 0.00 0
Seminole 2NNE  12:50 AM 54 47 82% SE1014 17 mph 112° @ 1210 AM 55 54 82 74 30.33" 0 0.00 0
Seymour 3NW  12:50 AM 57 55 94% E23 3 mph 75° @ 1250 AM 59 57 95 93 30.33" 0 0.00 0
Silverton 7ESE  12:50 AM 46 41 86% SE99 11 mph 113° @ 1205 AM 49 46 86 78 30.36" 0 0.00 0
Slaton 2NE  12:50 AM 52 47 83% E79 13 mph 117° @ 1202 AM 53 52 83 78 30.36" 0 0.00 0
Smyer  12:50 AM 53 45 74% E1316 20 mph 103° @ 1241 AM 54 53 74 61 30.35" 0 0.00 0
Snyder 3E  12:50 AM 50 47 90% E78 8 mph 101° @ 1220 AM 51 50 90 88 30.33" 0 0.00 0
Snyder 3SSW  12:50 AM 50 48 95% E11 5 mph 93° @ 1206 AM 51 50 95 89 30.34" 0 0.00 0
South Plains 3ENE  12:50 AM 48 43 82% SE89 12 mph 106° @ 1201 AM 51 47 83 75 30.36" 0 0.00 0
Spur 1W  12:50 AM 53 48 86% SE46 7 mph 118° @ 1225 AM 54 53 86 79 30.33" 0 0.00 0
Stamford 5ESE  12:50 AM 58 55 89% SE45 6 mph 85° @ 1208 AM 59 58 90 83 30.34" 0 0.00 0
Sundown 8WSW  12:50 AM 49 42 78% SE78 10 mph 115° @ 1215 AM 53 49 78 70 30.33" 0 0.00 0
Tahoka 3NNE  12:50 AM 52 46 81% E67 17 mph 103° @ 1224 AM 53 52 81 78 30.34" 0 0.00 0
Tatum NM 2SW  12:50 AM 53 45 76% SE1215 16 mph 116° @ 1205 AM 55 53 76 72 30.33" 0 0.00 0
Throckmorton 1SW  12:50 AM 57 54 90% SE11 1 mph 151° @ 1248 AM 58 57 91 89 30.33" 0 0.00 0
Truscott 2SE  12:50 AM 52 49 92% E11 5 mph 76° @ 1201 AM 54 52 92 90 30.34" 0 0.00 0
Tulia 2ENE  12:50 AM 45 39 79% E67 9 mph 98° @ 1220 AM 47 45 79 74 30.36" 0 0.00 0
Turkey 2WSW  12:50 AM 51 42 74% SE44 8 mph 113° @ 1215 AM 52 51 74 71 30.35" 0 0.00 0
Umbarger 3NNE  12:50 AM 45 40 81% SE1013 14 mph 121° @ 1234 AM 45 43 86 80 30.37" 0 0.00 0
Vigo Park  12:50 AM 46 40 81% E910 11 mph 108° @ 1244 AM 48 45 83 77 30.37" 0 0.00 0
Weinert 2NNE  12:50 AM 54 52 92% SE11 4 mph 112° @ 1210 AM 56 54 92 88 30.34" 0 0.00 0
Welch  12:50 AM 53 49 85% SE1012 15 mph 120° @ 1232 AM 54 53 85 79 30.34" 0 0.00 0
Wellington 6SE  12:50 AM 50 41 73% NE67 9 mph 67° @ 1243 AM 53 50 73 65 30.35" 0 0.00 0
White River Lake 6NW  12:50 AM 52 47 85% E57 12 mph 92° @ 1212 AM 53 52 85 79 30.34" 0 0.00 0
Wolfforth 6SSW  12:50 AM 52 45 78% SE1215 20 mph 106° @ 1245 AM 54 52 78 70 30.35" 0 0.00 0

West Texas Mesonet Home   Site Map/Menu  NWS Lubbock Soil Data  Daily Summary Page  24hr Precip  72hr Precip  Google Plot